sensor_id;sensor_type;location;lat;lon;timestamp;pressure;altitude;pressure_sealevel;temperature;humidity
73624;BME280;61921;53.226;-1.296;2023-06-10T00:01:30;100609.44;;;12.39;92.92
73624;BME280;61921;53.226;-1.296;2023-06-10T00:03:56;100608.59;;;12.43;93.04
73624;BME280;61921;53.226;-1.296;2023-06-10T00:06:22;100609.63;;;12.28;93.92
73624;BME280;61921;53.226;-1.296;2023-06-10T00:08:47;100610.91;;;12.43;93.24
73624;BME280;61921;53.226;-1.296;2023-06-10T00:11:12;100610.61;;;12.30;93.92
73624;BME280;61921;53.226;-1.296;2023-06-10T00:13:38;100615.35;;;12.55;93.08
73624;BME280;61921;53.226;-1.296;2023-06-10T00:16:03;100618.93;;;12.50;92.57
73624;BME280;61921;53.226;-1.296;2023-06-10T00:18:29;100616.93;;;12.42;92.90
73624;BME280;61921;53.226;-1.296;2023-06-10T00:20:54;100621.71;;;12.47;92.67
73624;BME280;61921;53.226;-1.296;2023-06-10T00:23:19;100620.26;;;12.33;93.44
73624;BME280;61921;53.226;-1.296;2023-06-10T00:25:44;100616.80;;;12.46;93.01
73624;BME280;61921;53.226;-1.296;2023-06-10T00:28:09;100613.87;;;12.12;94.51
73624;BME280;61921;53.226;-1.296;2023-06-10T00:30:35;100611.41;;;12.15;94.63
73624;BME280;61921;53.226;-1.296;2023-06-10T00:33:00;100604.54;;;12.16;94.83
73624;BME280;61921;53.226;-1.296;2023-06-10T00:35:26;100604.73;;;12.29;94.25
73624;BME280;61921;53.226;-1.296;2023-06-10T00:37:51;100600.29;;;12.25;94.13
73624;BME280;61921;53.226;-1.296;2023-06-10T00:40:16;100602.29;;;12.40;93.58
73624;BME280;61921;53.226;-1.296;2023-06-10T00:42:42;100601.25;;;12.40;93.64
73624;BME280;61921;53.226;-1.296;2023-06-10T00:45:08;100594.45;;;12.27;93.93
73624;BME280;61921;53.226;-1.296;2023-06-10T00:47:33;100588.21;;;12.30;94.28
73624;BME280;61921;53.226;-1.296;2023-06-10T00:49:58;100582.76;;;12.16;94.86
73624;BME280;61921;53.226;-1.296;2023-06-10T00:52:28;100578.29;;;12.14;95.36
73624;BME280;61921;53.226;-1.296;2023-06-10T00:54:49;100575.61;;;11.96;96.86
73624;BME280;61921;53.226;-1.296;2023-06-10T00:57:15;100572.82;;;12.00;96.30
73624;BME280;61921;53.226;-1.296;2023-06-10T00:59:41;100575.77;;;12.04;96.41
73624;BME280;61921;53.226;-1.296;2023-06-10T01:02:06;100575.01;;;11.84;97.67
73624;BME280;61921;53.226;-1.296;2023-06-10T01:04:31;100573.68;;;11.94;97.54
73624;BME280;61921;53.226;-1.296;2023-06-10T01:07:04;100572.31;;;11.99;96.98
73624;BME280;61921;53.226;-1.296;2023-06-10T01:09:28;100577.09;;;11.99;97.47
73624;BME280;61921;53.226;-1.296;2023-06-10T01:11:53;100575.45;;;11.94;97.69
73624;BME280;61921;53.226;-1.296;2023-06-10T01:14:13;100575.22;;;12.04;97.50
73624;BME280;61921;53.226;-1.296;2023-06-10T01:16:38;100576.72;;;12.09;97.09
73624;BME280;61921;53.226;-1.296;2023-06-10T01:19:04;100575.35;;;12.18;96.18
73624;BME280;61921;53.226;-1.296;2023-06-10T01:21:29;100575.63;;;12.24;96.14
73624;BME280;61921;53.226;-1.296;2023-06-10T01:23:55;100568.82;;;12.03;97.47
73624;BME280;61921;53.226;-1.296;2023-06-10T01:26:28;100566.69;;;12.11;97.78
73624;BME280;61921;53.226;-1.296;2023-06-10T01:28:51;100567.52;;;11.97;98.25
73624;BME280;61921;53.226;-1.296;2023-06-10T01:31:16;100564.48;;;11.88;99.41
73624;BME280;61921;53.226;-1.296;2023-06-10T01:33:41;100567.89;;;12.00;99.22
73624;BME280;61921;53.226;-1.296;2023-06-10T01:36:03;100568.75;;;12.16;98.21
73624;BME280;61921;53.226;-1.296;2023-06-10T01:38:31;100566.60;;;12.13;97.62
73624;BME280;61921;53.226;-1.296;2023-06-10T01:40:55;100565.49;;;12.15;97.71
73624;BME280;61921;53.226;-1.296;2023-06-10T01:43:20;100561.16;;;11.98;98.79
73624;BME280;61921;53.226;-1.296;2023-06-10T01:45:44;100561.51;;;12.19;98.29
73624;BME280;61921;53.226;-1.296;2023-06-10T01:48:09;100561.58;;;12.05;98.94
73624;BME280;61921;53.226;-1.296;2023-06-10T01:50:35;100563.39;;;12.20;98.38
73624;BME280;61921;53.226;-1.296;2023-06-10T01:53:00;100559.57;;;12.22;98.42
73624;BME280;61921;53.226;-1.296;2023-06-10T01:55:26;100554.34;;;12.19;98.15
73624;BME280;61921;53.226;-1.296;2023-06-10T01:57:51;100555.16;;;12.11;98.63
73624;BME280;61921;53.226;-1.296;2023-06-10T02:00:17;100554.80;;;12.03;99.94
73624;BME280;61921;53.226;-1.296;2023-06-10T02:02:41;100550.08;;;12.10;99.66
73624;BME280;61921;53.226;-1.296;2023-06-10T02:05:07;100550.68;;;12.09;99.49
73624;BME280;61921;53.226;-1.296;2023-06-10T02:07:32;100552.35;;;12.16;99.17
73624;BME280;61921;53.226;-1.296;2023-06-10T02:09:57;100550.29;;;12.19;99.06
73624;BME280;61921;53.226;-1.296;2023-06-10T02:12:23;100546.74;;;11.97;100.00
73624;BME280;61921;53.226;-1.296;2023-06-10T02:14:48;100548.08;;;12.21;99.10
73624;BME280;61921;53.226;-1.296;2023-06-10T02:17:13;100546.26;;;12.06;99.76
73624;BME280;61921;53.226;-1.296;2023-06-10T02:19:38;100544.33;;;11.96;100.00
73624;BME280;61921;53.226;-1.296;2023-06-10T02:22:04;100539.58;;;11.92;100.00
73624;BME280;61921;53.226;-1.296;2023-06-10T02:24:29;100541.84;;;11.95;100.00
73624;BME280;61921;53.226;-1.296;2023-06-10T02:26:55;100538.93;;;11.88;100.00
73624;BME280;61921;53.226;-1.296;2023-06-10T02:29:20;100537.76;;;11.82;100.00
73624;BME280;61921;53.226;-1.296;2023-06-10T02:31:47;100535.09;;;11.91;100.00
73624;BME280;61921;53.226;-1.296;2023-06-10T02:34:11;100534.07;;;12.13;100.00
73624;BME280;61921;53.226;-1.296;2023-06-10T02:36:36;100527.72;;;11.94;100.00
73624;BME280;61921;53.226;-1.296;2023-06-10T02:39:02;100530.45;;;11.92;100.00
73624;BME280;61921;53.226;-1.296;2023-06-10T02:41:27;100529.99;;;11.94;100.00
73624;BME280;61921;53.226;-1.296;2023-06-10T02:43:52;100535.43;;;12.03;100.00
73624;BME280;61921;53.226;-1.296;2023-06-10T02:46:17;100533.84;;;11.99;100.00
73624;BME280;61921;53.226;-1.296;2023-06-10T02:48:43;100530.98;;;11.81;100.00
73624;BME280;61921;53.226;-1.296;2023-06-10T02:51:08;100529.76;;;11.79;100.00
73624;BME280;61921;53.226;-1.296;2023-06-10T02:53:34;100528.12;;;11.83;100.00
73624;BME280;61921;53.226;-1.296;2023-06-10T02:55:59;100530.76;;;11.81;100.00
73624;BME280;61921;53.226;-1.296;2023-06-10T02:58:25;100529.93;;;11.83;100.00
73624;BME280;61921;53.226;-1.296;2023-06-10T03:00:50;100527.47;;;11.86;100.00
73624;BME280;61921;53.226;-1.296;2023-06-10T03:03:15;100526.48;;;11.77;100.00
73624;BME280;61921;53.226;-1.296;2023-06-10T03:05:40;100526.48;;;11.79;100.00
73624;BME280;61921;53.226;-1.296;2023-06-10T03:08:06;100530.45;;;11.90;100.00
73624;BME280;61921;53.226;-1.296;2023-06-10T03:10:32;100531.60;;;12.02;100.00
73624;BME280;61921;53.226;-1.296;2023-06-10T03:12:57;100532.65;;;11.95;100.00
73624;BME280;61921;53.226;-1.296;2023-06-10T03:15:23;100530.01;;;11.82;100.00
73624;BME280;61921;53.226;-1.296;2023-06-10T03:17:48;100529.36;;;11.80;100.00
73624;BME280;61921;53.226;-1.296;2023-06-10T03:20:14;100532.39;;;11.73;100.00
73624;BME280;61921;53.226;-1.296;2023-06-10T03:22:39;100528.07;;;11.74;100.00
73624;BME280;61921;53.226;-1.296;2023-06-10T03:25:05;100525.93;;;11.85;100.00
73624;BME280;61921;53.226;-1.296;2023-06-10T03:27:29;100523.73;;;11.84;100.00
73624;BME280;61921;53.226;-1.296;2023-06-10T03:29:55;100521.80;;;11.86;100.00
73624;BME280;61921;53.226;-1.296;2023-06-10T03:32:20;100515.02;;;11.91;100.00
73624;BME280;61921;53.226;-1.296;2023-06-10T03:34:46;100513.71;;;11.72;100.00
73624;BME280;61921;53.226;-1.296;2023-06-10T03:37:12;100514.00;;;11.72;100.00
73624;BME280;61921;53.226;-1.296;2023-06-10T03:39:37;100511.28;;;11.81;100.00
73624;BME280;61921;53.226;-1.296;2023-06-10T03:42:02;100512.06;;;11.73;100.00
73624;BME280;61921;53.226;-1.296;2023-06-10T03:44:27;100512.56;;;11.79;100.00
73624;BME280;61921;53.226;-1.296;2023-06-10T03:46:53;100517.63;;;11.79;100.00
73624;BME280;61921;53.226;-1.296;2023-06-10T03:49:18;100520.06;;;11.75;100.00
73624;BME280;61921;53.226;-1.296;2023-06-10T03:51:43;100512.32;;;11.84;100.00
73624;BME280;61921;53.226;-1.296;2023-06-10T03:54:08;100507.15;;;11.71;100.00
73624;BME280;61921;53.226;-1.296;2023-06-10T03:56:34;100507.03;;;11.72;100.00
73624;BME280;61921;53.226;-1.296;2023-06-10T03:58:59;100508.92;;;11.84;100.00
73624;BME280;61921;53.226;-1.296;2023-06-10T04:01:24;100512.24;;;11.80;100.00
73624;BME280;61921;53.226;-1.296;2023-06-10T04:03:50;100516.43;;;11.82;100.00
73624;BME280;61921;53.226;-1.296;2023-06-10T04:06:16;100515.75;;;11.74;100.00
73624;BME280;61921;53.226;-1.296;2023-06-10T04:08:41;100520.99;;;11.67;100.00
73624;BME280;61921;53.226;-1.296;2023-06-10T04:11:07;100521.11;;;11.65;100.00
73624;BME280;61921;53.226;-1.296;2023-06-10T04:13:32;100522.61;;;11.40;100.00
73624;BME280;61921;53.226;-1.296;2023-06-10T04:15:58;100520.78;;;11.55;100.00
73624;BME280;61921;53.226;-1.296;2023-06-10T04:18:23;100521.26;;;11.55;100.00
73624;BME280;61921;53.226;-1.296;2023-06-10T04:20:49;100519.12;;;11.52;100.00
73624;BME280;61921;53.226;-1.296;2023-06-10T04:23:14;100517.12;;;11.61;100.00
73624;BME280;61921;53.226;-1.296;2023-06-10T04:25:39;100519.80;;;11.63;100.00
73624;BME280;61921;53.226;-1.296;2023-06-10T04:28:04;100514.38;;;11.62;100.00
73624;BME280;61921;53.226;-1.296;2023-06-10T04:30:29;100514.75;;;11.58;100.00
73624;BME280;61921;53.226;-1.296;2023-06-10T04:32:55;100515.03;;;11.51;100.00
73624;BME280;61921;53.226;-1.296;2023-06-10T04:35:20;100513.78;;;11.62;100.00
73624;BME280;61921;53.226;-1.296;2023-06-10T04:37:46;100509.73;;;11.61;100.00
73624;BME280;61921;53.226;-1.296;2023-06-10T04:40:12;100508.70;;;11.66;100.00
73624;BME280;61921;53.226;-1.296;2023-06-10T04:42:37;100508.14;;;11.73;100.00
73624;BME280;61921;53.226;-1.296;2023-06-10T04:45:04;100504.54;;;11.57;100.00
73624;BME280;61921;53.226;-1.296;2023-06-10T04:47:29;100502.49;;;11.56;100.00
73624;BME280;61921;53.226;-1.296;2023-06-10T04:49:54;100504.38;;;11.77;100.00
73624;BME280;61921;53.226;-1.296;2023-06-10T04:52:20;100504.57;;;11.64;100.00
73624;BME280;61921;53.226;-1.296;2023-06-10T04:54:45;100495.86;;;11.60;100.00
73624;BME280;61921;53.226;-1.296;2023-06-10T04:57:11;100494.02;;;11.71;100.00
73624;BME280;61921;53.226;-1.296;2023-06-10T04:59:36;100499.32;;;11.87;100.00
73624;BME280;61921;53.226;-1.296;2023-06-10T05:02:01;100498.74;;;11.78;100.00
73624;BME280;61921;53.226;-1.296;2023-06-10T05:04:27;100498.51;;;11.68;100.00
73624;BME280;61921;53.226;-1.296;2023-06-10T05:06:52;100496.49;;;11.66;100.00
73624;BME280;61921;53.226;-1.296;2023-06-10T05:09:18;100492.67;;;11.58;100.00
73624;BME280;61921;53.226;-1.296;2023-06-10T05:11:43;100493.35;;;11.54;100.00
73624;BME280;61921;53.226;-1.296;2023-06-10T05:14:08;100492.94;;;11.65;100.00
73624;BME280;61921;53.226;-1.296;2023-06-10T05:16:34;100495.73;;;11.84;100.00
73624;BME280;61921;53.226;-1.296;2023-06-10T05:18:59;100497.30;;;11.86;100.00
73624;BME280;61921;53.226;-1.296;2023-06-10T05:21:25;100495.93;;;11.84;100.00
73624;BME280;61921;53.226;-1.296;2023-06-10T05:23:50;100500.12;;;11.95;100.00
73624;BME280;61921;53.226;-1.296;2023-06-10T05:26:16;100501.89;;;12.14;100.00
73624;BME280;61921;53.226;-1.296;2023-06-10T05:28:41;100501.35;;;12.03;100.00
73624;BME280;61921;53.226;-1.296;2023-06-10T05:31:06;100497.40;;;12.03;100.00
73624;BME280;61921;53.226;-1.296;2023-06-10T05:33:32;100495.34;;;11.95;100.00
73624;BME280;61921;53.226;-1.296;2023-06-10T05:35:57;100495.42;;;11.96;100.00
73624;BME280;61921;53.226;-1.296;2023-06-10T05:38:28;100496.70;;;11.91;100.00
73624;BME280;61921;53.226;-1.296;2023-06-10T05:40:48;100496.07;;;12.01;100.00
73624;BME280;61921;53.226;-1.296;2023-06-10T05:43:14;100496.14;;;11.96;100.00
73624;BME280;61921;53.226;-1.296;2023-06-10T05:45:39;100501.53;;;11.95;100.00
73624;BME280;61921;53.226;-1.296;2023-06-10T05:48:05;100496.65;;;12.04;100.00
73624;BME280;61921;53.226;-1.296;2023-06-10T05:50:31;100501.02;;;12.36;100.00
73624;BME280;61921;53.226;-1.296;2023-06-10T05:52:56;100495.31;;;12.49;100.00
73624;BME280;61921;53.226;-1.296;2023-06-10T05:55:23;100493.20;;;12.28;100.00
73624;BME280;61921;53.226;-1.296;2023-06-10T05:57:47;100490.54;;;12.21;100.00
73624;BME280;61921;53.226;-1.296;2023-06-10T06:00:14;100494.61;;;12.26;100.00
73624;BME280;61921;53.226;-1.296;2023-06-10T06:02:37;100501.19;;;12.03;100.00
73624;BME280;61921;53.226;-1.296;2023-06-10T06:05:03;100499.92;;;12.20;100.00
73624;BME280;61921;53.226;-1.296;2023-06-10T06:07:29;100505.77;;;12.31;100.00
73624;BME280;61921;53.226;-1.296;2023-06-10T06:09:53;100507.71;;;12.38;100.00
73624;BME280;61921;53.226;-1.296;2023-06-10T06:12:19;100511.24;;;12.50;100.00
73624;BME280;61921;53.226;-1.296;2023-06-10T06:14:44;100513.99;;;12.85;99.93
73624;BME280;61921;53.226;-1.296;2023-06-10T06:17:10;100511.53;;;12.64;100.00
73624;BME280;61921;53.226;-1.296;2023-06-10T06:19:36;100513.54;;;12.40;100.00
73624;BME280;61921;53.226;-1.296;2023-06-10T06:22:01;100513.27;;;12.47;100.00
73624;BME280;61921;53.226;-1.296;2023-06-10T06:24:26;100509.65;;;12.52;100.00
73624;BME280;61921;53.226;-1.296;2023-06-10T06:26:52;100509.85;;;12.52;100.00
73624;BME280;61921;53.226;-1.296;2023-06-10T06:29:17;100505.55;;;12.51;99.87
73624;BME280;61921;53.226;-1.296;2023-06-10T06:31:43;100506.89;;;12.52;99.05
73624;BME280;61921;53.226;-1.296;2023-06-10T06:34:08;100510.27;;;12.51;98.75
73624;BME280;61921;53.226;-1.296;2023-06-10T06:36:34;100512.59;;;12.63;98.02
73624;BME280;61921;53.226;-1.296;2023-06-10T06:38:59;100514.80;;;12.63;97.55
73624;BME280;61921;53.226;-1.296;2023-06-10T06:41:26;100513.08;;;12.54;98.30
73624;BME280;61921;53.226;-1.296;2023-06-10T06:43:50;100511.44;;;12.66;97.42
73624;BME280;61921;53.226;-1.296;2023-06-10T06:46:16;100508.63;;;12.67;97.83
73624;BME280;61921;53.226;-1.296;2023-06-10T06:48:41;100509.37;;;12.80;97.21
73624;BME280;61921;53.226;-1.296;2023-06-10T06:51:06;100507.97;;;13.27;95.63
73624;BME280;61921;53.226;-1.296;2023-06-10T06:53:32;100509.97;;;13.35;93.41
73624;BME280;61921;53.226;-1.296;2023-06-10T06:55:57;100508.02;;;13.38;93.29
73624;BME280;61921;53.226;-1.296;2023-06-10T06:58:23;100506.92;;;13.28;92.78
73624;BME280;61921;53.226;-1.296;2023-06-10T07:00:48;100504.37;;;13.12;93.91
73624;BME280;61921;53.226;-1.296;2023-06-10T07:03:13;100507.11;;;13.37;93.43
73624;BME280;61921;53.226;-1.296;2023-06-10T07:05:39;100503.49;;;13.81;91.54
73624;BME280;61921;53.226;-1.296;2023-06-10T07:08:05;100503.68;;;14.31;89.21
73624;BME280;61921;53.226;-1.296;2023-06-10T07:10:30;100507.14;;;14.24;87.71
73624;BME280;61921;53.226;-1.296;2023-06-10T07:12:55;100500.83;;;14.06;89.28
73624;BME280;61921;53.226;-1.296;2023-06-10T07:15:21;100507.96;;;14.39;87.44
73624;BME280;61921;53.226;-1.296;2023-06-10T07:17:46;100503.48;;;14.69;85.85
73624;BME280;61921;53.226;-1.296;2023-06-10T07:20:13;100502.12;;;14.50;86.17
73624;BME280;61921;53.226;-1.296;2023-06-10T07:22:37;100504.29;;;14.35;86.49
73624;BME280;61921;53.226;-1.296;2023-06-10T07:25:03;100506.02;;;13.81;88.94
73624;BME280;61921;53.226;-1.296;2023-06-10T07:27:28;100508.94;;;13.79;89.81
73624;BME280;61921;53.226;-1.296;2023-06-10T07:29:53;100505.75;;;13.98;89.56
73624;BME280;61921;53.226;-1.296;2023-06-10T07:32:19;100509.91;;;14.35;87.18
73624;BME280;61921;53.226;-1.296;2023-06-10T07:34:44;100507.77;;;14.73;85.67
73624;BME280;61921;53.226;-1.296;2023-06-10T07:37:09;100506.38;;;14.71;85.17
73624;BME280;61921;53.226;-1.296;2023-06-10T07:39:35;100510.04;;;15.10;84.09
73624;BME280;61921;53.226;-1.296;2023-06-10T07:42:00;100509.99;;;15.28;82.92
73624;BME280;61921;53.226;-1.296;2023-06-10T07:44:26;100511.23;;;16.13;80.60
73624;BME280;61921;53.226;-1.296;2023-06-10T07:46:51;100510.61;;;16.38;78.60
73624;BME280;61921;53.226;-1.296;2023-06-10T07:49:16;100509.99;;;16.17;79.09
73624;BME280;61921;53.226;-1.296;2023-06-10T07:51:41;100507.33;;;16.39;78.36
73624;BME280;61921;53.226;-1.296;2023-06-10T07:54:07;100507.95;;;15.96;79.72
73624;BME280;61921;53.226;-1.296;2023-06-10T07:56:32;100507.57;;;16.61;77.66
73624;BME280;61921;53.226;-1.296;2023-06-10T07:58:58;100507.14;;;17.02;75.40
73624;BME280;61921;53.226;-1.296;2023-06-10T08:01:23;100507.26;;;17.26;75.22
73624;BME280;61921;53.226;-1.296;2023-06-10T08:03:49;100509.34;;;17.24;75.14
73624;BME280;61921;53.226;-1.296;2023-06-10T08:06:14;100508.88;;;17.15;74.91
73624;BME280;61921;53.226;-1.296;2023-06-10T08:08:41;100508.90;;;17.42;75.16
73624;BME280;61921;53.226;-1.296;2023-06-10T08:11:05;100509.15;;;17.76;73.13
73624;BME280;61921;53.226;-1.296;2023-06-10T08:13:31;100509.29;;;17.81;73.60
73624;BME280;61921;53.226;-1.296;2023-06-10T08:15:57;100504.60;;;18.10;71.78
73624;BME280;61921;53.226;-1.296;2023-06-10T08:18:22;100502.57;;;18.03;72.03
73624;BME280;61921;53.226;-1.296;2023-06-10T08:20:47;100504.42;;;17.92;72.52
73624;BME280;61921;53.226;-1.296;2023-06-10T08:23:12;100500.78;;;18.81;69.56
73624;BME280;61921;53.226;-1.296;2023-06-10T08:25:38;100502.03;;;18.97;68.70
73624;BME280;61921;53.226;-1.296;2023-06-10T08:28:03;100501.16;;;18.51;69.78
73624;BME280;61921;53.226;-1.296;2023-06-10T08:30:28;100501.05;;;17.85;72.44
73624;BME280;61921;53.226;-1.296;2023-06-10T08:32:53;100494.34;;;18.41;71.52
73624;BME280;61921;53.226;-1.296;2023-06-10T08:35:19;100493.26;;;18.56;70.26
73624;BME280;61921;53.226;-1.296;2023-06-10T08:37:44;100493.11;;;18.61;70.85
73624;BME280;61921;53.226;-1.296;2023-06-10T08:40:11;100490.73;;;18.50;70.85
73624;BME280;61921;53.226;-1.296;2023-06-10T08:42:40;100493.38;;;18.30;71.18
73624;BME280;61921;53.226;-1.296;2023-06-10T08:45:03;100490.97;;;18.50;71.29
73624;BME280;61921;53.226;-1.296;2023-06-10T08:47:29;100488.96;;;18.78;69.96
73624;BME280;61921;53.226;-1.296;2023-06-10T08:49:53;100486.30;;;18.76;70.69
73624;BME280;61921;53.226;-1.296;2023-06-10T08:52:19;100479.64;;;18.65;70.81
73624;BME280;61921;53.226;-1.296;2023-06-10T08:54:48;100476.30;;;19.03;70.12
73624;BME280;61921;53.226;-1.296;2023-06-10T08:57:08;100477.11;;;19.12;70.40
73624;BME280;61921;53.226;-1.296;2023-06-10T08:59:34;100473.57;;;19.50;68.41
73624;BME280;61921;53.226;-1.296;2023-06-10T09:01:59;100474.26;;;19.70;67.69
73624;BME280;61921;53.226;-1.296;2023-06-10T09:04:25;100471.17;;;19.93;67.48
73624;BME280;61921;53.226;-1.296;2023-06-10T09:06:51;100470.84;;;20.08;66.00
73624;BME280;61921;53.226;-1.296;2023-06-10T09:09:16;100464.12;;;20.08;65.72
73624;BME280;61921;53.226;-1.296;2023-06-10T09:11:42;100465.71;;;20.12;66.53
73624;BME280;61921;53.226;-1.296;2023-06-10T09:14:06;100469.32;;;20.57;65.82
73624;BME280;61921;53.226;-1.296;2023-06-10T09:16:31;100473.50;;;20.31;65.90
73624;BME280;61921;53.226;-1.296;2023-06-10T09:18:57;100471.97;;;20.34;65.80
73624;BME280;61921;53.226;-1.296;2023-06-10T09:21:23;100471.89;;;20.60;66.06
73624;BME280;61921;53.226;-1.296;2023-06-10T09:23:48;100465.03;;;20.79;65.48
73624;BME280;61921;53.226;-1.296;2023-06-10T09:26:12;100464.61;;;21.09;63.68
73624;BME280;61921;53.226;-1.296;2023-06-10T09:28:37;100461.10;;;20.78;64.43
73624;BME280;61921;53.226;-1.296;2023-06-10T09:31:04;100464.67;;;21.16;63.83
73624;BME280;61921;53.226;-1.296;2023-06-10T09:33:28;100461.58;;;21.70;63.57
73624;BME280;61921;53.226;-1.296;2023-06-10T09:35:54;100462.66;;;22.09;62.26
73624;BME280;61921;53.226;-1.296;2023-06-10T09:38:20;100459.85;;;22.44;60.51
73624;BME280;61921;53.226;-1.296;2023-06-10T09:40:50;100461.76;;;22.47;59.31
73624;BME280;61921;53.226;-1.296;2023-06-10T09:43:10;100461.72;;;21.83;60.16
73624;BME280;61921;53.226;-1.296;2023-06-10T09:45:35;100463.42;;;21.41;62.37
73624;BME280;61921;53.226;-1.296;2023-06-10T09:48:01;100459.78;;;21.80;61.98
73624;BME280;61921;53.226;-1.296;2023-06-10T09:50:26;100464.01;;;22.06;60.91
73624;BME280;61921;53.226;-1.296;2023-06-10T09:52:53;100459.74;;;22.27;60.39
73624;BME280;61921;53.226;-1.296;2023-06-10T09:55:17;100459.83;;;22.65;59.71
73624;BME280;61921;53.226;-1.296;2023-06-10T09:57:43;100457.62;;;22.86;58.79
73624;BME280;61921;53.226;-1.296;2023-06-10T10:00:10;100452.76;;;22.14;59.30
73624;BME280;61921;53.226;-1.296;2023-06-10T10:05:03;100450.15;;;22.10;60.60
73624;BME280;61921;53.226;-1.296;2023-06-10T10:07:24;100454.77;;;22.78;59.10
73624;BME280;61921;53.226;-1.296;2023-06-10T10:09:49;100454.81;;;23.25;58.17
73624;BME280;61921;53.226;-1.296;2023-06-10T10:12:16;100455.20;;;23.10;58.46
73624;BME280;61921;53.226;-1.296;2023-06-10T10:14:46;100456.74;;;23.06;59.69
73624;BME280;61921;53.226;-1.296;2023-06-10T10:17:09;100456.65;;;23.37;58.18
73624;BME280;61921;53.226;-1.296;2023-06-10T10:19:32;100457.19;;;23.26;58.69
73624;BME280;61921;53.226;-1.296;2023-06-10T10:22:01;100454.48;;;23.05;58.56
73624;BME280;61921;53.226;-1.296;2023-06-10T10:24:26;100460.20;;;23.30;57.66
73624;BME280;61921;53.226;-1.296;2023-06-10T10:26:48;100450.22;;;23.30;57.71
73624;BME280;61921;53.226;-1.296;2023-06-10T10:29:19;100451.95;;;22.95;58.44
73624;BME280;61921;53.226;-1.296;2023-06-10T10:31:38;100456.66;;;23.42;58.51
73624;BME280;61921;53.226;-1.296;2023-06-10T10:34:07;100455.81;;;23.97;56.89
73624;BME280;61921;53.226;-1.296;2023-06-10T10:36:28;100452.11;;;23.93;56.10
73624;BME280;61921;53.226;-1.296;2023-06-10T10:38:54;100450.97;;;23.84;56.76
73624;BME280;61921;53.226;-1.296;2023-06-10T10:41:19;100451.71;;;23.89;58.70
73624;BME280;61921;53.226;-1.296;2023-06-10T10:43:45;100447.78;;;24.44;55.58
73624;BME280;61921;53.226;-1.296;2023-06-10T10:46:12;100443.73;;;24.54;56.42
73624;BME280;61921;53.226;-1.296;2023-06-10T10:48:38;100443.57;;;25.10;53.99
73624;BME280;61921;53.226;-1.296;2023-06-10T10:51:01;100444.15;;;24.51;54.94
73624;BME280;61921;53.226;-1.296;2023-06-10T10:53:26;100442.22;;;25.12;55.04
73624;BME280;61921;53.226;-1.296;2023-06-10T10:55:58;100438.43;;;24.59;54.52
73624;BME280;61921;53.226;-1.296;2023-06-10T10:58:24;100436.28;;;24.78;54.71
73624;BME280;61921;53.226;-1.296;2023-06-10T11:00:44;100437.53;;;24.76;55.53
73624;BME280;61921;53.226;-1.296;2023-06-10T11:03:07;100435.71;;;24.66;55.74
73624;BME280;61921;53.226;-1.296;2023-06-10T11:05:37;100435.52;;;25.01;55.85
73624;BME280;61921;53.226;-1.296;2023-06-10T11:07:57;100432.68;;;25.21;54.19
73624;BME280;61921;53.226;-1.296;2023-06-10T11:10:29;100429.37;;;25.03;54.54
73624;BME280;61921;53.226;-1.296;2023-06-10T11:12:51;100430.85;;;25.21;54.05
73624;BME280;61921;53.226;-1.296;2023-06-10T11:15:19;100431.36;;;25.06;55.06
73624;BME280;61921;53.226;-1.296;2023-06-10T11:20:06;100429.96;;;25.29;54.94
73624;BME280;61921;53.226;-1.296;2023-06-10T11:22:31;100426.28;;;24.96;55.73
73624;BME280;61921;53.226;-1.296;2023-06-10T11:24:56;100429.42;;;25.10;55.36
73624;BME280;61921;53.226;-1.296;2023-06-10T11:27:23;100424.43;;;25.16;55.54
73624;BME280;61921;53.226;-1.296;2023-06-10T11:29:57;100421.99;;;25.23;55.75
73624;BME280;61921;53.226;-1.296;2023-06-10T11:32:13;100416.85;;;25.78;54.73
73624;BME280;61921;53.226;-1.296;2023-06-10T11:34:38;100413.90;;;26.12;53.16
73624;BME280;61921;53.226;-1.296;2023-06-10T11:37:04;100415.68;;;26.21;52.70
73624;BME280;61921;53.226;-1.296;2023-06-10T11:39:29;100407.63;;;26.13;52.32
73624;BME280;61921;53.226;-1.296;2023-06-10T11:41:54;100405.82;;;26.31;51.40
73624;BME280;61921;53.226;-1.296;2023-06-10T11:44:20;100400.18;;;26.66;50.71
73624;BME280;61921;53.226;-1.296;2023-06-10T11:46:48;100398.32;;;26.69;51.15
73624;BME280;61921;53.226;-1.296;2023-06-10T11:49:11;100400.36;;;26.57;51.72
73624;BME280;61921;53.226;-1.296;2023-06-10T11:51:37;100395.59;;;26.38;50.92
73624;BME280;61921;53.226;-1.296;2023-06-10T11:54:02;100394.19;;;26.27;52.48
73624;BME280;61921;53.226;-1.296;2023-06-10T11:56:29;100397.20;;;26.75;52.54
73624;BME280;61921;53.226;-1.296;2023-06-10T11:58:54;100391.41;;;26.86;49.82
73624;BME280;61921;53.226;-1.296;2023-06-10T12:01:20;100393.90;;;27.27;48.56
73624;BME280;61921;53.226;-1.296;2023-06-10T12:03:44;100394.65;;;27.46;48.32
73624;BME280;61921;53.226;-1.296;2023-06-10T12:06:10;100393.80;;;27.71;49.58
73624;BME280;61921;53.226;-1.296;2023-06-10T12:08:41;100389.87;;;27.52;48.81
73624;BME280;61921;53.226;-1.296;2023-06-10T12:11:01;100392.03;;;27.47;49.42
73624;BME280;61921;53.226;-1.296;2023-06-10T12:13:27;100387.65;;;27.99;48.46
73624;BME280;61921;53.226;-1.296;2023-06-10T12:15:52;100386.85;;;28.03;47.41
73624;BME280;61921;53.226;-1.296;2023-06-10T12:18:18;100383.24;;;28.29;48.03
73624;BME280;61921;53.226;-1.296;2023-06-10T12:20:43;100381.68;;;28.22;47.76
73624;BME280;61921;53.226;-1.296;2023-06-10T12:23:09;100376.29;;;28.18;48.55
73624;BME280;61921;53.226;-1.296;2023-06-10T12:25:35;100374.34;;;28.15;47.95
73624;BME280;61921;53.226;-1.296;2023-06-10T12:27:59;100373.31;;;27.99;48.13
73624;BME280;61921;53.226;-1.296;2023-06-10T12:30:26;100366.34;;;28.42;48.66